Oldcastle, Ireland
Current Conditions -  °F | °C
As of 9:30 PM on Monday 26 Jan 2015 (Local Time) from EIDW Reporting Station
Broken Clouds Broken Clouds  
Wind Chill: 34°   Ceiling: 3300
Heat Index: 41°   Visibility: 6mi
Dew Point: 37°   Wind: 13mph
Humidity: 87%   Direction: 260°W
Pressure: 30.42"   Gusts: NA
Location:  53.77°N, 7.16°W
Report Text: EIDW 262030Z 26011KT 9999 FEW016 SCT025 BKN033 05/03 Q1030 NOSIG
Loading
Personal Weather Stations






























Interactive Weather Map New forecast layout! Learn more

10-Day Weather Forecast

Advertisements
Track Severe Weather on mobile